默认 日期 大小 文件数 浏览量 最新下载 xml
a love磁力链接相关资源由用户搜索指令自动获取,结果来源于网络,本站不存储任何资料,亦不承担任何责任,请于24小时内删除,搜索到13594个磁力,显示前4000条数据,用时31ms。
    {"cover.jpg": 3509751, "12. A New Door.mp3": 11164967, "02. ... Good Morning.mp3": 10321736, "04. Love Love Love.mp3": 8067893, "05. If You ... Want It.mp3": 12357199, "01. Love Revolution.mp3": 7790996, "06. I ... Go Home.mp3": 12175390, "09. A Long And Sad Goodbye.mp3 ...
创建时间: 2019-01-24 06:51:53 大小:145.71 MB 文件数量:15 热度:9 最近下载:2022-11-12 10:58:45
    {"RARBG.txt": 30, "fugli.nfo": 12178, "file_id.diz": 683, "111623-13376-001.jpg": 857870, "111623-13376-002.jpg": 765952, "111623-13376-003.jpg": 804228, "111623-13376-004.jpg": 870742, "111623-13376-005.jpg": 858076, "111623-13376-006.jpg": 926074, " ...
创建时间: 2019-01-24 08:27:16 大小:50.39 MB 文件数量:64 热度:5 最近下载:2025-01-01 15:52:03
    {"Whole Collection.torrent": 1999605, "Other Favorite Torrents.torrent": 4037, "ktr.xart.12.12.18.gianna.a.love.story.mov": 834102379, "X Art HQ Young Teen Porn Recent Additions.torrent": 16256}
创建时间: 2019-01-24 08:35:57 大小:797.39 MB 文件数量:4 热度:7 最近下载:2025-04-14 19:26:01
    {"Downloaded from www.ETTV.tv .txt": 199, "teen.mom.s07e00.maci.and.taylor.a.love.story.web.x264-tbs[ettv].mkv": 478984695}
创建时间: 2019-01-24 08:58:57 大小:456.8 MB 文件数量:2 热度:5 最近下载:2022-11-12 08:41:37
    {"Torrent Downloaded from GloTorrents.pw.txt": 239, "Torrent Downloaded from GloTorrents.com.txt": 239, "My.Big.Fat.American.Gypsy.Wedding.S03E01.A.Love.Worth.Fighting.For.HDTV.x264-CRiMSON.mp4": 371748198}
创建时间: 2019-01-24 09:58:58 大小:354.53 MB 文件数量:3 热度:6 最近下载:2025-09-19 06:07:02
    ... :52movieba.txt": 0, "Toilet A.Love.Story.2017.BD1080P.X264.AAC ...
创建时间: 2019-01-24 16:13:48 大小:4.67 GB 文件数量:4 热度:11 最近下载:2025-02-16 06:03:02
    {"alt-torrent.com.mp4": 4001994, "POR FAVOR!.....COMPARTAN!.txt": 125, "Vengeance - A Love Story (2017) 1080p LAT - FllorTV.jpg": 92519, "Vengeance - A Love Story (2017) 1080p LAT - FllorTV.mkv": 3066449232}
创建时间: 2019-01-27 21:04:48 大小:2.86 GB 文件数量:4 热度:5 最近下载:2024-10-25 20:36:02
    {"www.scenetime.com.txt": 55, "www.Speed.Cd read me .txt": 55, "Wristcutters A Love Story 2006 WEBRiP x246 AC3-OFFLiNE.mp4": 1468600079, "Wristcutters A Love Story 2006 WEBRiP x246 AC3-OFFLiNE.nfo": 7095}
创建时间: 2019-01-27 21:24:33 大小:1.37 GB 文件数量:4 热度:4 最近下载:2022-11-12 10:25:49
    {"Capitalism.A.Love.Story.LIMITED.2009.480p.BRRip.XviD.AC3-FLAWL3SS.avi": 2109884942, "Capitalism.A.Love.Story.LIMITED.2009.480p.BRRip.XviD.AC3-FLAWL3SS.srt": 201118}
创建时间: 2019-01-27 22:35:36 大小:1.97 GB 文件数量:2 热度:5 最近下载:2022-11-12 10:24:51
    {"RARBG.txt": 30, "RARBG_DO_NOT_MIRROR.exe": 99, "teen.mom.s07e00.maci.and.taylor.a.love.story.web.x264-tbs.mkv": 478984695, "teen.mom.s07e00.maci.and.taylor.a.love.story.web.x264-tbs.nfo": 69}
创建时间: 2019-01-27 23:48:55 大小:456.8 MB 文件数量:4 热度:7 最近下载:2022-11-12 10:59:02
    {"cover.jpg": 108855, "metadata.opf": 4514, "Asperger Syndrome - a Love Story - Sarah Hendrickx.pdf": 480762, "Asperger Syndrome - a Love Story - Sarah Hendrickx.epub": 212614}
创建时间: 2019-01-28 03:59:32 大小:787.84 KB 文件数量:4 热度:4 最近下载:2022-11-12 12:53:57
    ... .Mom.S07E00.Maci.and.Taylor.A.Love.Story.XviD-AFG.avi": 560440710 ... .Mom.S07E00.Maci.and.Taylor.A.Love.Story.XviD-AFG.nfo": 1209 ...
创建时间: 2019-01-28 16:48:10 大小:535.51 MB 文件数量:7 热度:8 最近下载:2022-11-12 08:40:43
    ... ).flac": 74450358}, "John Coltrane - 1964 - A Love Supreme (2002 Deluxe Edition).nfo ... ": 485, "John Coltrane - 1964 - A Love Supreme (2002 Deluxe Edition).sfv ...
创建时间: 2019-01-28 19:49:56 大小:764.08 MB 文件数量:15 热度:14 最近下载:2025-03-15 07:56:01
    ... .txt": 2991, "A Love Supreme": {"02 - John Coltrane - A Love Supreme, Part Two ... 312082822, "01 - John Coltrane - A Love Supreme, Part One Acknowledgement.dff ... A Love Supreme.iso": 1425868800, "John Coltrane - A Love Supreme.md5": 70, "John Coltrane - A Love ...
创建时间: 2019-01-29 01:11:39 大小:1.96 GB 文件数量:30 热度:21 最近下载:2025-03-17 12:58:03
    ... - [DDR].avi": 732786688, "Not a Love Story - DVDRip - XviD - 1CDRip ... - [DDR].gif": 38943, "Not a Love Story - DVDRip - XviD - 1CDRip ... - [DDR].srt": 82051, "Not a Love Story (Screens) - DVDRip - XviD ... "10.png": 117183}, "Not a Love Story (Sample) - DVDRip - ...
创建时间: 2019-01-29 08:44:47 大小:707.47 MB 文件数量:17 热度:6 最近下载:2025-02-21 22:01:51
    ... .mom.s07e00.maci.and.taylor.a.love.story.1080p.web.x264-tbs ... .mom.s07e00.maci.and.taylor.a.love.story.1080p.web.x264-tbs ...
创建时间: 2019-01-29 20:46:19 大小:1.29 GB 文件数量:7 热度:6 最近下载:2022-11-12 10:36:50
    {"ETRG.mp4": 1515390, "Torrent Downloaded From ExtraTorrent.cc.txt": 338, "Muffin.Top.A.Love.Story.2014.720p.WEB-DL.x264[ETRG].mkv": 3048841246}
创建时间: 2019-01-30 02:00:39 大小:2.84 GB 文件数量:3 热度:7 最近下载:2022-11-12 09:53:59
    {"NFO.txt": 1288, "Vengeance.A.Love.Story.2017.1080p.BluRay.x264-ROVERS.mkv": 7041245680}
创建时间: 2019-01-30 03:23:14 大小:6.56 GB 文件数量:2 热度:8 最近下载:2024-08-08 21:31:02
    ... .mom.s07e00.maci.and.taylor.a.love.story.web.x264-tbs.mkv ... .mom.s07e00.maci.and.taylor.a.love.story.web.x264-tbs.nfo ...
创建时间: 2019-01-30 11:24:30 大小:459.8 MB 文件数量:7 热度:7 最近下载:2022-11-15 18:55:50
    {"1.jpg": 316479, "front.jpg": 167281, "df-alt2.mp4": 1311655587, "df-alt2.nfo": 16613}
创建时间: 2019-01-30 17:07:40 大小:1.22 GB 文件数量:4 热度:6 最近下载:2022-11-15 20:00:29